Idre Storbo, Sweden

8:41 PM CEST on August 27, 2014 (GMT +0200)
Roros | Change Station
CLOSE
Current Station
Airport
Location: Roros Lufthavn,
Elevation: 2054 ft
Nearby Weather Stations

Elev 2054 ft 62.58 °N, 11.34 °E | Updated 21 minutes ago

Mostly Cloudy
Mostly Cloudy
46 °F
Feels Like 42 °F
N
10
Wind Variable Wind from North

Today
High -- | Low -- °F
--% Chance of Precip.
Yesterday
High -- | Low -- °F
Precip. -- in
5:46 AM 8:36 PM
Waxing Crescent, 4% visible
Pressure 29.98 in
Visibility 6.2 miles
Clouds Mostly Cloudy 1600 ft
Mostly Cloudy 1900 ft
Windchill 42 °F
Dew Point 43 °F
Humidity 87%
Rainfall 0.00 in
Snow Depth Not available.
UV 0 out of 12
Pollen Not available.
Air Quality Not available.
Flu Activity Not available.
METAR ENRO 271820Z 35009KT 9999 BKN016 BKN019 08/06 Q1015

More Conditions Fewer Conditions

Pressure 29.98 in
Visibility 6.2 miles
Clouds Mostly Cloudy 1600 ft
Mostly Cloudy 1900 ft
Windchill 42 °F
Dew Point 43 °F
Humidity 87%
Rainfall 0.00 in
Snow Depth Not available.
UV 0 out of 12
Pollen Not available.
Air Quality Not available.
Flu Activity Not available.
METAR ENRO 271820Z 35009KT 9999 BKN016 BKN019 08/06 Q1015

More Conditions Fewer Conditions

10-Day Weather Forecast

Almanac

Astronomy

Aug. 27, 2014 Rise Set
Actual Time 5:46 AM CEST 8:36 PM CEST
Civil Twilight 4:56 AM CEST 9:25 PM CEST
Nautical Twilight 3:46 AM CEST 10:34 PM CEST
Astronomical Twilight 1:44 AM CEST 12:38 AM CEST
Moon 8:10 AM CEST 8:29 PM CEST
Length of Visible Light 16h 29m
Length of Day
14h 49m
Tomorrow will be 5m 50s shorter.
Waxing Crescent, 4% of the Moon is Illuminated
Today
Waxing Crescent
Sep 2
First Quarter
Sep 8
Full
Sep 15
Last Quarter
Sep 24
New

Today's Extremes

Country Highs Country Lows

Community

WunderPhotos

Upload Photos

1,747,752 photos uploaded!

Nearby

Snow Depth

Not available.

Earthquake Activity

City Distance Mag. Time & Date
No recent earthquake activity has been reported nearby.
Minimum magnitude displayed is 2.5.

Coastal Water Temperatures

Place Temperature
No Stations Reporting

Nearby Weather Stations